sensor_id;sensor_type;location;lat;lon;timestamp;pressure;altitude;pressure_sealevel;temperature;humidity
76609;BME280;65928;53.936;27.540;2023-03-16T00:01:16;98916.34;;;4.55;68.67
76609;BME280;65928;53.936;27.540;2023-03-16T00:03:42;98826.66;;;3.92;69.16
76609;BME280;65928;53.936;27.540;2023-03-16T00:06:08;98564.28;;;2.15;69.13
76609;BME280;65928;53.936;27.540;2023-03-16T00:08:33;98949.16;;;4.36;68.64
76609;BME280;65928;53.936;27.540;2023-03-16T00:11:00;98834.78;;;4.12;68.57
76609;BME280;65928;53.936;27.540;2023-03-16T00:13:28;98946.59;;;4.35;68.58
76609;BME280;65928;53.936;27.540;2023-03-16T00:15:59;98576.63;;;2.42;68.04
76609;BME280;65928;53.936;27.540;2023-03-16T00:18:26;98966.50;;;4.71;68.10
76609;BME280;65928;53.936;27.540;2023-03-16T00:20:53;98580.63;;;2.55;68.00
76609;BME280;65928;53.936;27.540;2023-03-16T00:23:20;98798.03;;;3.88;67.73
76609;BME280;65928;53.936;27.540;2023-03-16T00:25:54;98585.72;;;2.60;67.90
76609;BME280;65928;53.936;27.540;2023-03-16T00:28:21;98641.84;;;2.74;67.95
76609;BME280;65928;53.936;27.540;2023-03-16T00:30:47;98953.69;;;4.62;68.21
76609;BME280;65928;53.936;27.540;2023-03-16T00:33:12;98927.09;;;4.45;68.33
76609;BME280;65928;53.936;27.540;2023-03-16T00:35:38;98951.22;;;4.56;68.41
76609;BME280;65928;53.936;27.540;2023-03-16T00:38:03;98943.78;;;4.42;68.58
76609;BME280;65928;53.936;27.540;2023-03-16T00:40:29;98977.63;;;4.47;68.84
76609;BME280;65928;53.936;27.540;2023-03-16T00:42:55;98685.03;;;2.52;69.09
76609;BME280;65928;53.936;27.540;2023-03-16T00:45:21;98948.19;;;4.08;69.70
76609;BME280;65928;53.936;27.540;2023-03-16T00:47:48;98660.75;;;2.83;68.59
76609;BME280;65928;53.936;27.540;2023-03-16T00:50:13;98585.69;;;2.28;68.43
76609;BME280;65928;53.936;27.540;2023-03-16T00:52:39;98554.41;;;1.94;68.22
76609;BME280;65928;53.936;27.540;2023-03-16T00:55:04;98575.06;;;1.63;69.46
76609;BME280;65928;53.936;27.540;2023-03-16T00:57:30;98557.16;;;1.87;68.70
76609;BME280;65928;53.936;27.540;2023-03-16T00:59:56;98707.88;;;2.77;68.47
76609;BME280;65928;53.936;27.540;2023-03-16T01:02:21;98958.47;;;3.82;68.57
76609;BME280;65928;53.936;27.540;2023-03-16T01:04:50;98633.22;;;1.23;71.28
76609;BME280;65928;53.936;27.540;2023-03-16T01:07:16;98580.75;;;1.42;70.10
76609;BME280;65928;53.936;27.540;2023-03-16T01:09:42;98988.38;;;3.32;70.84
76609;BME280;65928;53.936;27.540;2023-03-16T01:12:14;98987.66;;;3.64;69.81
76609;BME280;65928;53.936;27.540;2023-03-16T01:14:41;98960.41;;;3.01;71.13
76609;BME280;65928;53.936;27.540;2023-03-16T01:17:08;98615.13;;;0.74;71.49
76609;BME280;65928;53.936;27.540;2023-03-16T01:19:35;98933.56;;;2.94;71.67
76609;BME280;65928;53.936;27.540;2023-03-16T01:22:02;98585.63;;;0.75;71.19
76609;BME280;65928;53.936;27.540;2023-03-16T01:24:28;98964.09;;;2.91;71.74
76609;BME280;65928;53.936;27.540;2023-03-16T01:26:54;98932.00;;;2.87;71.11
76609;BME280;65928;53.936;27.540;2023-03-16T01:29:19;98968.13;;;3.05;70.73
76609;BME280;65928;53.936;27.540;2023-03-16T01:31:45;98978.06;;;2.88;72.04
76609;BME280;65928;53.936;27.540;2023-03-16T01:34:11;98883.75;;;2.66;71.11
76609;BME280;65928;53.936;27.540;2023-03-16T01:36:41;98914.00;;;2.75;71.71
76609;BME280;65928;53.936;27.540;2023-03-16T01:39:09;98728.94;;;1.53;70.98
76609;BME280;65928;53.936;27.540;2023-03-16T01:41:36;99001.06;;;2.69;71.60
76609;BME280;65928;53.936;27.540;2023-03-16T01:44:01;99023.16;;;3.36;70.58
76609;BME280;65928;53.936;27.540;2023-03-16T01:46:28;98917.44;;;2.77;70.59
76609;BME280;65928;53.936;27.540;2023-03-16T01:51:58;98668.94;;;1.15;70.33
76609;BME280;65928;53.936;27.540;2023-03-16T01:59:29;98604.72;;;0.75;70.30
76609;BME280;65928;53.936;27.540;2023-03-16T02:01:56;98625.69;;;1.11;69.70
76609;BME280;65928;53.936;27.540;2023-03-16T02:05:03;98990.44;;;3.20;69.17
76609;BME280;65928;53.936;27.540;2023-03-16T02:07:34;98614.41;;;1.10;69.57
76609;BME280;65928;53.936;27.540;2023-03-16T02:10:03;98748.19;;;1.87;69.38
76609;BME280;65928;53.936;27.540;2023-03-16T02:12:29;98625.84;;;1.02;69.74
76609;BME280;65928;53.936;27.540;2023-03-16T02:14:55;98990.41;;;2.82;69.73
76609;BME280;65928;53.936;27.540;2023-03-16T02:17:24;98985.47;;;2.68;69.97
76609;BME280;65928;53.936;27.540;2023-03-16T02:22:35;98980.09;;;2.74;70.95
76609;BME280;65928;53.936;27.540;2023-03-16T02:25:02;98927.25;;;2.23;71.28
76609;BME280;65928;53.936;27.540;2023-03-16T02:30:15;98634.38;;;0.62;69.74
76609;BME280;65928;53.936;27.540;2023-03-16T02:32:41;98633.88;;;0.89;70.35
76609;BME280;65928;53.936;27.540;2023-03-16T02:35:09;98676.03;;;1.08;69.92
76609;BME280;65928;53.936;27.540;2023-03-16T02:37:34;98888.25;;;2.19;69.96
76609;BME280;65928;53.936;27.540;2023-03-16T02:40:01;98993.13;;;2.74;70.99
76609;BME280;65928;53.936;27.540;2023-03-16T02:42:34;98674.97;;;0.71;70.82
76609;BME280;65928;53.936;27.540;2023-03-16T02:45:00;98694.38;;;1.01;70.23
76609;BME280;65928;53.936;27.540;2023-03-16T02:47:39;99016.25;;;2.49;70.82
76609;BME280;65928;53.936;27.540;2023-03-16T02:50:11;98723.03;;;0.98;70.10
76609;BME280;65928;53.936;27.540;2023-03-16T02:52:38;99008.50;;;2.45;70.67
76609;BME280;65928;53.936;27.540;2023-03-16T02:55:07;99012.41;;;2.67;70.05
76609;BME280;65928;53.936;27.540;2023-03-16T02:57:33;98662.63;;;0.35;70.22
76609;BME280;65928;53.936;27.540;2023-03-16T02:59:58;98996.94;;;2.59;69.78
76609;BME280;65928;53.936;27.540;2023-03-16T03:02:25;98825.50;;;1.39;69.46
76609;BME280;65928;53.936;27.540;2023-03-16T03:04:50;99028.25;;;2.58;70.22
76609;BME280;65928;53.936;27.540;2023-03-16T03:07:19;98661.75;;;0.34;70.39
76609;BME280;65928;53.936;27.540;2023-03-16T03:09:45;99031.50;;;2.25;70.59
76609;BME280;65928;53.936;27.540;2023-03-16T03:12:11;98918.50;;;1.80;70.14
76609;BME280;65928;53.936;27.540;2023-03-16T03:14:38;98841.28;;;1.32;70.18
76609;BME280;65928;53.936;27.540;2023-03-16T03:17:07;98981.31;;;2.14;69.93
76609;BME280;65928;53.936;27.540;2023-03-16T03:19:33;99061.88;;;2.27;70.34
76609;BME280;65928;53.936;27.540;2023-03-16T03:22:03;98659.53;;;0.10;70.76
76609;BME280;65928;53.936;27.540;2023-03-16T03:24:31;98787.41;;;0.86;69.67
76609;BME280;65928;53.936;27.540;2023-03-16T03:26:57;98798.94;;;1.22;69.70
76609;BME280;65928;53.936;27.540;2023-03-16T03:29:30;98696.63;;;0.20;69.96
76609;BME280;65928;53.936;27.540;2023-03-16T03:32:07;99010.75;;;2.19;70.32
76609;BME280;65928;53.936;27.540;2023-03-16T03:34:33;99059.13;;;2.33;70.64
76609;BME280;65928;53.936;27.540;2023-03-16T03:36:59;98773.81;;;0.69;69.30
76609;BME280;65928;53.936;27.540;2023-03-16T03:39:25;98695.16;;;0.00;70.24
76609;BME280;65928;53.936;27.540;2023-03-16T03:41:50;98708.34;;;0.45;69.01
76609;BME280;65928;53.936;27.540;2023-03-16T03:44:22;99057.34;;;2.35;69.20
76609;BME280;65928;53.936;27.540;2023-03-16T03:46:48;99090.50;;;2.29;69.96
76609;BME280;65928;53.936;27.540;2023-03-16T03:49:13;99068.66;;;2.36;69.71
76609;BME280;65928;53.936;27.540;2023-03-16T03:51:39;99028.66;;;2.37;68.71
76609;BME280;65928;53.936;27.540;2023-03-16T03:54:05;98793.50;;;0.84;68.51
76609;BME280;65928;53.936;27.540;2023-03-16T03:56:31;98769.00;;;0.99;68.51
76609;BME280;65928;53.936;27.540;2023-03-16T03:58:56;99090.16;;;2.47;68.51
76609;BME280;65928;53.936;27.540;2023-03-16T04:01:21;99092.69;;;2.51;68.63
76609;BME280;65928;53.936;27.540;2023-03-16T04:03:47;99086.22;;;2.73;68.56
76609;BME280;65928;53.936;27.540;2023-03-16T04:06:12;99093.88;;;2.34;69.40
76609;BME280;65928;53.936;27.540;2023-03-16T04:08:38;99098.97;;;2.43;69.58
76609;BME280;65928;53.936;27.540;2023-03-16T04:11:03;98787.66;;;0.71;69.58
76609;BME280;65928;53.936;27.540;2023-03-16T04:13:29;98844.56;;;0.88;68.44
76609;BME280;65928;53.936;27.540;2023-03-16T04:16:00;99041.19;;;2.17;68.28
76609;BME280;65928;53.936;27.540;2023-03-16T04:18:30;99132.34;;;2.71;67.65
76609;BME280;65928;53.936;27.540;2023-03-16T04:21:06;98770.25;;;0.75;67.99
76609;BME280;65928;53.936;27.540;2023-03-16T04:23:32;98766.34;;;0.48;68.98
76609;BME280;65928;53.936;27.540;2023-03-16T04:25:58;98763.63;;;0.56;68.26
76609;BME280;65928;53.936;27.540;2023-03-16T04:28:24;98950.63;;;1.80;67.61
76609;BME280;65928;53.936;27.540;2023-03-16T04:30:51;99144.53;;;2.19;69.46
76609;BME280;65928;53.936;27.540;2023-03-16T04:33:19;98739.25;;;0.05;68.88
76609;BME280;65928;53.936;27.540;2023-03-16T04:35:46;98767.56;;;0.25;68.72
76609;BME280;65928;53.936;27.540;2023-03-16T04:38:11;99128.94;;;2.16;69.96
76609;BME280;65928;53.936;27.540;2023-03-16T04:40:37;99111.72;;;2.06;70.67
76609;BME280;65928;53.936;27.540;2023-03-16T04:43:03;98822.53;;;0.55;68.97
76609;BME280;65928;53.936;27.540;2023-03-16T04:45:28;99096.56;;;2.29;69.60
76609;BME280;65928;53.936;27.540;2023-03-16T04:47:53;99095.44;;;2.44;68.68
76609;BME280;65928;53.936;27.540;2023-03-16T04:50:19;98779.72;;;0.23;68.90
76609;BME280;65928;53.936;27.540;2023-03-16T04:52:44;99055.78;;;1.73;69.63
76609;BME280;65928;53.936;27.540;2023-03-16T04:55:10;98778.31;;;0.57;68.77
76609;BME280;65928;53.936;27.540;2023-03-16T04:57:36;99005.53;;;1.68;68.04
76609;BME280;65928;53.936;27.540;2023-03-16T05:00:02;99117.03;;;2.52;68.61
76609;BME280;65928;53.936;27.540;2023-03-16T05:02:34;99117.84;;;2.55;68.71
76609;BME280;65928;53.936;27.540;2023-03-16T05:05:00;98859.16;;;0.98;68.17
76609;BME280;65928;53.936;27.540;2023-03-16T05:07:25;99143.00;;;2.59;68.64
76609;BME280;65928;53.936;27.540;2023-03-16T05:09:50;99135.66;;;2.29;68.74
76609;BME280;65928;53.936;27.540;2023-03-16T05:12:16;99164.56;;;2.16;68.66
76609;BME280;65928;53.936;27.540;2023-03-16T05:14:41;99172.28;;;2.23;68.56
76609;BME280;65928;53.936;27.540;2023-03-16T05:17:06;99151.47;;;2.20;68.88
76609;BME280;65928;53.936;27.540;2023-03-16T05:19:32;99156.59;;;2.26;68.71
76609;BME280;65928;53.936;27.540;2023-03-16T05:21:57;99145.72;;;1.99;68.88
76609;BME280;65928;53.936;27.540;2023-03-16T05:24:23;99142.22;;;2.01;69.22
76609;BME280;65928;53.936;27.540;2023-03-16T05:26:48;99165.16;;;2.85;66.99
76609;BME280;65928;53.936;27.540;2023-03-16T05:29:14;98925.19;;;0.91;67.61
76609;BME280;65928;53.936;27.540;2023-03-16T05:31:39;99161.88;;;2.72;67.30
76609;BME280;65928;53.936;27.540;2023-03-16T05:34:04;99156.75;;;2.67;67.29
76609;BME280;65928;53.936;27.540;2023-03-16T05:36:30;99134.84;;;2.27;67.56
76609;BME280;65928;53.936;27.540;2023-03-16T05:38:55;98854.16;;;0.86;66.77
76609;BME280;65928;53.936;27.540;2023-03-16T05:41:22;99170.22;;;2.92;66.97
76609;BME280;65928;53.936;27.540;2023-03-16T05:43:47;98979.38;;;1.74;66.34
76609;BME280;65928;53.936;27.540;2023-03-16T05:46:13;98861.34;;;1.24;65.59
76609;BME280;65928;53.936;27.540;2023-03-16T05:48:38;99105.19;;;2.34;66.77
76609;BME280;65928;53.936;27.540;2023-03-16T05:51:04;99182.78;;;2.70;66.45
76609;BME280;65928;53.936;27.540;2023-03-16T05:53:31;98888.88;;;1.37;65.82
76609;BME280;65928;53.936;27.540;2023-03-16T05:55:56;99144.38;;;3.23;65.00
76609;BME280;65928;53.936;27.540;2023-03-16T05:58:22;99198.38;;;2.75;66.03
76609;BME280;65928;53.936;27.540;2023-03-16T06:00:47;99189.44;;;3.34;65.47
76609;BME280;65928;53.936;27.540;2023-03-16T06:03:14;99209.94;;;2.59;65.97
76609;BME280;65928;53.936;27.540;2023-03-16T06:05:39;99216.16;;;2.52;66.72
76609;BME280;65928;53.936;27.540;2023-03-16T06:08:05;98912.66;;;1.16;66.49
76609;BME280;65928;53.936;27.540;2023-03-16T06:10:31;99205.63;;;2.58;66.84
76609;BME280;65928;53.936;27.540;2023-03-16T06:12:56;99132.06;;;2.38;66.79
76609;BME280;65928;53.936;27.540;2023-03-16T06:15:22;99135.69;;;2.28;66.10
76609;BME280;65928;53.936;27.540;2023-03-16T06:17:49;98892.75;;;1.13;66.37
76609;BME280;65928;53.936;27.540;2023-03-16T06:20:14;98908.00;;;1.36;65.36
76609;BME280;65928;53.936;27.540;2023-03-16T06:22:42;99224.38;;;3.27;64.75
76609;BME280;65928;53.936;27.540;2023-03-16T06:25:09;99251.28;;;3.30;64.80
76609;BME280;65928;53.936;27.540;2023-03-16T06:27:36;99264.34;;;3.32;64.48
76609;BME280;65928;53.936;27.540;2023-03-16T06:30:02;99205.31;;;3.66;64.07
76609;BME280;65928;53.936;27.540;2023-03-16T06:32:27;98918.97;;;1.54;64.07
76609;BME280;65928;53.936;27.540;2023-03-16T06:34:52;98917.09;;;1.62;64.29
76609;BME280;65928;53.936;27.540;2023-03-16T06:37:18;99182.72;;;3.21;64.14
76609;BME280;65928;53.936;27.540;2023-03-16T06:39:43;99232.69;;;3.48;63.67
76609;BME280;65928;53.936;27.540;2023-03-16T06:42:09;99165.72;;;3.00;63.80
76609;BME280;65928;53.936;27.540;2023-03-16T06:44:35;99238.50;;;3.62;64.47
76609;BME280;65928;53.936;27.540;2023-03-16T06:47:00;99232.22;;;3.28;64.76
76609;BME280;65928;53.936;27.540;2023-03-16T06:49:25;98962.16;;;1.66;64.62
76609;BME280;65928;53.936;27.540;2023-03-16T06:51:51;99192.63;;;3.48;63.54
76609;BME280;65928;53.936;27.540;2023-03-16T06:54:16;99242.41;;;3.85;62.78
76609;BME280;65928;53.936;27.540;2023-03-16T06:56:41;98929.97;;;2.16;63.11
76609;BME280;65928;53.936;27.540;2023-03-16T06:59:07;99238.56;;;4.01;63.18
76609;BME280;65928;53.936;27.540;2023-03-16T07:01:32;99246.59;;;3.49;62.62
76609;BME280;65928;53.936;27.540;2023-03-16T07:03:58;99239.63;;;3.49;63.74
76609;BME280;65928;53.936;27.540;2023-03-16T07:06:23;99214.50;;;3.42;63.79
76609;BME280;65928;53.936;27.540;2023-03-16T07:08:48;98927.16;;;1.32;64.27
76609;BME280;65928;53.936;27.540;2023-03-16T07:11:14;99183.31;;;2.91;63.21
76609;BME280;65928;53.936;27.540;2023-03-16T07:13:40;99065.38;;;2.70;62.58
76609;BME280;65928;53.936;27.540;2023-03-16T07:16:06;99292.16;;;3.80;63.36
76609;BME280;65928;53.936;27.540;2023-03-16T07:18:31;98946.53;;;1.66;62.78
76609;BME280;65928;53.936;27.540;2023-03-16T07:20:57;99178.59;;;2.60;64.01
76609;BME280;65928;53.936;27.540;2023-03-16T07:23:22;99005.22;;;2.35;62.77
76609;BME280;65928;53.936;27.540;2023-03-16T07:25:49;99249.25;;;3.90;62.58
76609;BME280;65928;53.936;27.540;2023-03-16T07:28:19;99008.16;;;2.17;62.42
76609;BME280;65928;53.936;27.540;2023-03-16T07:30:45;98972.84;;;2.45;61.43
76609;BME280;65928;53.936;27.540;2023-03-16T07:33:10;99022.06;;;3.06;60.11
76609;BME280;65928;53.936;27.540;2023-03-16T07:35:36;99263.63;;;4.50;59.95
76609;BME280;65928;53.936;27.540;2023-03-16T07:38:02;99264.56;;;4.46;60.29
76609;BME280;65928;53.936;27.540;2023-03-16T07:40:28;99283.50;;;4.18;60.64
76609;BME280;65928;53.936;27.540;2023-03-16T07:42:53;99232.63;;;3.94;60.67
76609;BME280;65928;53.936;27.540;2023-03-16T07:45:18;98936.28;;;2.06;61.24
76609;BME280;65928;53.936;27.540;2023-03-16T07:47:44;98974.34;;;3.00;60.59
76609;BME280;65928;53.936;27.540;2023-03-16T07:50:10;99286.56;;;4.75;59.96
76609;BME280;65928;53.936;27.540;2023-03-16T07:52:36;98966.97;;;3.17;60.05
76609;BME280;65928;53.936;27.540;2023-03-16T07:55:02;99265.47;;;5.50;58.67
76609;BME280;65928;53.936;27.540;2023-03-16T07:57:28;98958.84;;;3.30;58.45
76609;BME280;65928;53.936;27.540;2023-03-16T07:59:53;99267.38;;;4.74;58.37
76609;BME280;65928;53.936;27.540;2023-03-16T08:02:19;99282.22;;;4.75;58.80
76609;BME280;65928;53.936;27.540;2023-03-16T08:04:45;99258.00;;;4.66;59.35
76609;BME280;65928;53.936;27.540;2023-03-16T08:07:12;99288.47;;;4.70;59.59
76609;BME280;65928;53.936;27.540;2023-03-16T08:09:38;99182.50;;;4.49;59.42
76609;BME280;65928;53.936;27.540;2023-03-16T08:12:05;99319.41;;;5.24;58.78
76609;BME280;65928;53.936;27.540;2023-03-16T08:14:31;98979.16;;;3.90;57.18
76609;BME280;65928;53.936;27.540;2023-03-16T08:16:59;99033.91;;;3.21;59.29
76609;BME280;65928;53.936;27.540;2023-03-16T08:19:24;99327.22;;;4.91;59.22
76609;BME280;65928;53.936;27.540;2023-03-16T08:21:50;99320.22;;;4.91;59.54
76609;BME280;65928;53.936;27.540;2023-03-16T08:24:15;99056.66;;;4.27;57.10
76609;BME280;65928;53.936;27.540;2023-03-16T08:26:41;99297.34;;;5.33;58.08
76609;BME280;65928;53.936;27.540;2023-03-16T08:29:06;99024.75;;;4.45;56.09
76609;BME280;65928;53.936;27.540;2023-03-16T08:31:31;99174.22;;;4.67;58.31
76609;BME280;65928;53.936;27.540;2023-03-16T08:33:59;99299.91;;;5.36;57.08
76609;BME280;65928;53.936;27.540;2023-03-16T08:36:24;99310.69;;;5.58;57.17
76609;BME280;65928;53.936;27.540;2023-03-16T08:38:51;99298.09;;;5.38;58.82
76609;BME280;65928;53.936;27.540;2023-03-16T08:41:19;99298.09;;;4.68;59.27
76609;BME280;65928;53.936;27.540;2023-03-16T08:43:44;99354.88;;;5.37;59.52
76609;BME280;65928;53.936;27.540;2023-03-16T08:46:11;99198.13;;;4.17;58.84
76609;BME280;65928;53.936;27.540;2023-03-16T08:48:40;99051.09;;;4.04;57.63
76609;BME280;65928;53.936;27.540;2023-03-16T08:51:08;99162.31;;;5.21;55.80
76609;BME280;65928;53.936;27.540;2023-03-16T08:53:34;99009.03;;;4.15;56.07
76609;BME280;65928;53.936;27.540;2023-03-16T08:56:08;99016.19;;;3.35;58.12
76609;BME280;65928;53.936;27.540;2023-03-16T08:58:36;99329.22;;;5.50;57.46
76609;BME280;65928;53.936;27.540;2023-03-16T09:01:04;99083.41;;;3.67;57.26
76609;BME280;65928;53.936;27.540;2023-03-16T09:03:31;99327.13;;;5.63;57.75
76609;BME280;65928;53.936;27.540;2023-03-16T09:06:06;99075.44;;;4.08;57.11
76609;BME280;65928;53.936;27.540;2023-03-16T09:08:32;99330.09;;;5.84;57.46
76609;BME280;65928;53.936;27.540;2023-03-16T09:11:01;99314.47;;;5.78;56.59
76609;BME280;65928;53.936;27.540;2023-03-16T09:13:28;99025.78;;;4.40;56.43
76609;BME280;65928;53.936;27.540;2023-03-16T09:15:55;99347.44;;;5.55;56.34
76609;BME280;65928;53.936;27.540;2023-03-16T09:18:21;99296.25;;;5.41;56.67
76609;BME280;65928;53.936;27.540;2023-03-16T09:20:47;99175.38;;;4.91;56.59
76609;BME280;65928;53.936;27.540;2023-03-16T09:23:14;99342.66;;;5.38;57.45
76609;BME280;65928;53.936;27.540;2023-03-16T09:25:39;99264.56;;;5.18;57.26
76609;BME280;65928;53.936;27.540;2023-03-16T09:28:05;99334.31;;;5.21;58.14
76609;BME280;65928;53.936;27.540;2023-03-16T09:30:30;99330.22;;;5.44;56.89
76609;BME280;65928;53.936;27.540;2023-03-16T09:32:57;99338.38;;;5.34;57.14
76609;BME280;65928;53.936;27.540;2023-03-16T09:35:22;99264.91;;;5.03;56.70
76609;BME280;65928;53.936;27.540;2023-03-16T09:37:49;99130.53;;;4.37;57.76
76609;BME280;65928;53.936;27.540;2023-03-16T09:40:23;99348.66;;;5.06;57.30
76609;BME280;65928;53.936;27.540;2023-03-16T09:43:16;99346.53;;;6.21;55.40
76609;BME280;65928;53.936;27.540;2023-03-16T09:46:04;99362.44;;;5.48;56.89
76609;BME280;65928;53.936;27.540;2023-03-16T09:48:34;99373.69;;;5.53;57.10
76609;BME280;65928;53.936;27.540;2023-03-16T09:51:01;99377.19;;;5.87;56.80
76609;BME280;65928;53.936;27.540;2023-03-16T09:53:29;99354.63;;;5.46;56.54
76609;BME280;65928;53.936;27.540;2023-03-16T09:56:19;99331.19;;;5.40;57.37
76609;BME280;65928;53.936;27.540;2023-03-16T09:58:46;99058.91;;;3.71;56.70
76609;BME280;65928;53.936;27.540;2023-03-16T10:01:25;99353.28;;;5.30;57.34
76609;BME280;65928;53.936;27.540;2023-03-16T10:04:13;99308.41;;;5.10;56.90
76609;BME280;65928;53.936;27.540;2023-03-16T10:06:59;99399.44;;;5.01;56.67
76609;BME280;65928;53.936;27.540;2023-03-16T10:09:32;99314.38;;;4.80;57.22
76609;BME280;65928;53.936;27.540;2023-03-16T10:12:01;99367.34;;;5.62;56.94
76609;BME280;65928;53.936;27.540;2023-03-16T10:17:34;99161.28;;;4.26;55.56
76609;BME280;65928;53.936;27.540;2023-03-16T10:19:53;99101.53;;;3.73;54.67
76609;BME280;65928;53.936;27.540;2023-03-16T10:24:51;99408.28;;;5.67;55.39
76609;BME280;65928;53.936;27.540;2023-03-16T10:27:25;99073.31;;;3.87;54.93
76609;BME280;65928;53.936;27.540;2023-03-16T10:29:52;99375.38;;;6.21;55.00
76609;BME280;65928;53.936;27.540;2023-03-16T10:32:18;99133.56;;;4.54;54.62
76609;BME280;65928;53.936;27.540;2023-03-16T10:34:47;99078.84;;;4.45;54.56
76609;BME280;65928;53.936;27.540;2023-03-16T10:37:17;99364.91;;;6.20;53.87
76609;BME280;65928;53.936;27.540;2023-03-16T10:39:42;99380.56;;;5.92;53.87
76609;BME280;65928;53.936;27.540;2023-03-16T10:42:19;99331.75;;;5.53;54.69
76609;BME280;65928;53.936;27.540;2023-03-16T10:44:45;99348.66;;;6.38;53.40
76609;BME280;65928;53.936;27.540;2023-03-16T10:47:22;99387.13;;;6.39;52.11
76609;BME280;65928;53.936;27.540;2023-03-16T10:49:48;99086.78;;;4.42;52.79
76609;BME280;65928;53.936;27.540;2023-03-16T10:54:57;99360.19;;;6.32;51.93
76609;BME280;65928;53.936;27.540;2023-03-16T10:57:30;99388.38;;;5.94;52.28
76609;BME280;65928;53.936;27.540;2023-03-16T11:02:38;99102.06;;;5.21;51.71
76609;BME280;65928;53.936;27.540;2023-03-16T11:05:33;99413.75;;;6.25;50.95
76609;BME280;65928;53.936;27.540;2023-03-16T11:08:01;99112.91;;;4.77;51.73
76609;BME280;65928;53.936;27.540;2023-03-16T11:10:39;99368.00;;;6.34;51.83
76609;BME280;65928;53.936;27.540;2023-03-16T11:15:36;99432.13;;;6.56;50.71
76609;BME280;65928;53.936;27.540;2023-03-16T11:18:04;99114.16;;;4.95;50.02
76609;BME280;65928;53.936;27.540;2023-03-16T11:20:32;99395.16;;;6.64;50.12
76609;BME280;65928;53.936;27.540;2023-03-16T11:22:59;99393.28;;;6.38;49.62
76609;BME280;65928;53.936;27.540;2023-03-16T11:25:42;99102.16;;;4.86;47.91
76609;BME280;65928;53.936;27.540;2023-03-16T11:28:23;99409.34;;;7.69;46.51
76609;BME280;65928;53.936;27.540;2023-03-16T11:33:35;99425.13;;;7.69;48.05
76609;BME280;65928;53.936;27.540;2023-03-16T11:42:15;99456.69;;;6.54;45.59
76609;BME280;65928;53.936;27.540;2023-03-16T11:45:02;99421.06;;;6.76;46.13
76609;BME280;65928;53.936;27.540;2023-03-16T11:53:43;99366.28;;;6.64;44.91
76609;BME280;65928;53.936;27.540;2023-03-16T11:56:19;99413.25;;;7.02;45.02
76609;BME280;65928;53.936;27.540;2023-03-16T11:58:59;99421.13;;;7.30;44.67
76609;BME280;65928;53.936;27.540;2023-03-16T12:07:37;99416.94;;;7.50;44.79
76609;BME280;65928;53.936;27.540;2023-03-16T12:12:48;99113.78;;;5.08;46.75
76609;BME280;65928;53.936;27.540;2023-03-16T12:15:31;99449.84;;;6.79;45.66
76609;BME280;65928;53.936;27.540;2023-03-16T12:18:07;99419.13;;;6.52;45.54
76609;BME280;65928;53.936;27.540;2023-03-16T12:20:46;99232.19;;;5.84;45.29
76609;BME280;65928;53.936;27.540;2023-03-16T12:23:20;99450.56;;;6.53;44.93
76609;BME280;65928;53.936;27.540;2023-03-16T12:25:49;99434.72;;;6.87;44.43
76609;BME280;65928;53.936;27.540;2023-03-16T12:28:27;99409.97;;;6.95;42.77
76609;BME280;65928;53.936;27.540;2023-03-16T12:31:07;99423.91;;;6.97;42.84
76609;BME280;65928;53.936;27.540;2023-03-16T12:44:48;99463.66;;;7.14;42.99
76609;BME280;65928;53.936;27.540;2023-03-16T12:47:55;99431.75;;;6.99;42.65
76609;BME280;65928;53.936;27.540;2023-03-16T12:50:20;99442.69;;;6.53;43.04
76609;BME280;65928;53.936;27.540;2023-03-16T12:52:48;99390.06;;;6.58;42.34
76609;BME280;65928;53.936;27.540;2023-03-16T12:55:37;99453.69;;;6.67;42.42
76609;BME280;65928;53.936;27.540;2023-03-16T12:58:05;99174.63;;;5.18;42.59
76609;BME280;65928;53.936;27.540;2023-03-16T13:00:36;99434.91;;;6.81;42.15
76609;BME280;65928;53.936;27.540;2023-03-16T13:03:04;99146.94;;;5.40;43.00
76609;BME280;65928;53.936;27.540;2023-03-16T13:05:33;99196.31;;;5.86;42.23
76609;BME280;65928;53.936;27.540;2023-03-16T13:08:05;99454.22;;;7.07;41.22
76609;BME280;65928;53.936;27.540;2023-03-16T13:10:33;99161.63;;;5.45;42.04
76609;BME280;65928;53.936;27.540;2023-03-16T13:13:14;99258.84;;;5.99;41.75
76609;BME280;65928;53.936;27.540;2023-03-16T13:15:41;99450.59;;;6.84;41.51
76609;BME280;65928;53.936;27.540;2023-03-16T13:23:22;99484.06;;;6.45;41.92
76609;BME280;65928;53.936;27.540;2023-03-16T13:28:35;99499.47;;;6.57;40.92
76609;BME280;65928;53.936;27.540;2023-03-16T13:31:02;99101.72;;;5.03;41.71
76609;BME280;65928;53.936;27.540;2023-03-16T13:33:30;99255.97;;;5.45;41.72
76609;BME280;65928;53.936;27.540;2023-03-16T13:35:58;99204.66;;;5.05;40.89
76609;BME280;65928;53.936;27.540;2023-03-16T13:38:26;99235.59;;;5.24;40.20
76609;BME280;65928;53.936;27.540;2023-03-16T13:40:55;99220.22;;;5.11;39.65
76609;BME280;65928;53.936;27.540;2023-03-16T13:43:26;99452.97;;;6.30;40.04
76609;BME280;65928;53.936;27.540;2023-03-16T13:45:56;99440.94;;;6.54;39.68
76609;BME280;65928;53.936;27.540;2023-03-16T13:48:21;99232.31;;;5.16;40.76
76609;BME280;65928;53.936;27.540;2023-03-16T13:50:51;99166.47;;;4.64;40.22
76609;BME280;65928;53.936;27.540;2023-03-16T13:53:25;99453.59;;;6.40;41.17
76609;BME280;65928;53.936;27.540;2023-03-16T13:55:53;99136.69;;;5.00;40.55
76609;BME280;65928;53.936;27.540;2023-03-16T13:58:27;99440.03;;;6.24;40.74
76609;BME280;65928;53.936;27.540;2023-03-16T14:00:57;99168.94;;;4.70;41.06
76609;BME280;65928;53.936;27.540;2023-03-16T14:03:36;99468.34;;;6.44;41.26
76609;BME280;65928;53.936;27.540;2023-03-16T14:06:03;99434.00;;;5.87;41.81
76609;BME280;65928;53.936;27.540;2023-03-16T14:08:30;99386.50;;;5.99;41.69
76609;BME280;65928;53.936;27.540;2023-03-16T14:10:56;99464.91;;;6.72;41.54
76609;BME280;65928;53.936;27.540;2023-03-16T14:16:14;99455.84;;;6.84;40.41
76609;BME280;65928;53.936;27.540;2023-03-16T14:18:43;99474.78;;;6.95;40.64